Terminal Aerodrome Forecast
Issued by NWS Sterling, VA

Current Version | Previous Version | Graphics & Text | Print | Product List | Glossary On
Versions: 1 2 3 4 5 6 7 8 9 10 11 12 13 14 15
000
FTUS41 KLWX 280100 AAA
TAFMRB
TAF AMD
KMRB 280154Z 2802/2824 24007KT 6SM SHRA VCTS SCT050CB OVC090
      TEMPO 2802/2803 VRB30KT 3SM TSRA BKN025CB
     FM280400 24006KT P6SM VCTS BKN050CB
     FM280600 23007KT P6SM SCT050 BKN090
     FM281200 27011KT P6SM SCT050 BKN090=

USA.gov is the U.S. government's official web portal to all federal, state and local government web resources and services.